Terminal Aerodrome Forecast
Issued by NWS Lubbock, TX

Home | Current Version | Previous Version | Text Only | Print | Product List | Glossary On
Versions: 1 2 3 4 5 6 7 8 9 10 11 12 13 14 15
000
FTUS44 KLUB 062038 AAA
TAFLBB
TAF AMD
KLBB 062038Z 0621/0718 18014G20KT P6SM BKN060
     FM062300 16015G21KT P6SM VCTS BKN050CB
      TEMPO 0623/0701 VRB35KT 5SM TSRA SCT015 BKN040CB
     FM070300 VRB20KT 6SM TSRA SCT025 BKN050CB
     FM071000 34012KT P6SM OVC012=

USA.gov is the U.S. government's official web portal to all federal, state and local government web resources and services.